sensor_id;sensor_type;location;lat;lon;timestamp;pressure;altitude;pressure_sealevel;temperature;humidity
52591;BME280;38483;42.620;25.394;2022-07-29T00:02:27;97220.75;;;23.13;70.73
52591;BME280;38483;42.620;25.394;2022-07-29T00:04:55;97212.72;;;23.05;70.95
52591;BME280;38483;42.620;25.394;2022-07-29T00:07:22;97218.31;;;23.02;71.12
52591;BME280;38483;42.620;25.394;2022-07-29T00:09:49;97224.56;;;23.01;71.11
52591;BME280;38483;42.620;25.394;2022-07-29T00:12:23;97217.06;;;22.87;71.48
52591;BME280;38483;42.620;25.394;2022-07-29T00:14:56;97213.44;;;22.30;73.70
52591;BME280;38483;42.620;25.394;2022-07-29T00:17:23;97211.22;;;21.67;76.07
52591;BME280;38483;42.620;25.394;2022-07-29T00:19:51;97218.34;;;21.46;76.94
52591;BME280;38483;42.620;25.394;2022-07-29T00:22:19;97204.13;;;21.28;77.68
52591;BME280;38483;42.620;25.394;2022-07-29T00:24:49;97207.97;;;21.24;77.94
52591;BME280;38483;42.620;25.394;2022-07-29T00:27:17;97223.13;;;21.31;77.85
52591;BME280;38483;42.620;25.394;2022-07-29T00:29:44;97218.50;;;21.54;76.87
52591;BME280;38483;42.620;25.394;2022-07-29T00:32:11;97217.56;;;21.55;76.73
52591;BME280;38483;42.620;25.394;2022-07-29T00:34:38;97220.94;;;21.36;77.20
52591;BME280;38483;42.620;25.394;2022-07-29T00:37:24;97221.00;;;21.25;77.89
52591;BME280;38483;42.620;25.394;2022-07-29T00:39:51;97209.06;;;21.00;78.68
52591;BME280;38483;42.620;25.394;2022-07-29T00:42:18;97189.19;;;20.87;78.76
52591;BME280;38483;42.620;25.394;2022-07-29T00:44:45;97198.56;;;20.80;78.86
52591;BME280;38483;42.620;25.394;2022-07-29T00:47:12;97197.97;;;20.76;79.42
52591;BME280;38483;42.620;25.394;2022-07-29T00:49:41;97193.09;;;20.72;79.28
52591;BME280;38483;42.620;25.394;2022-07-29T00:52:10;97196.06;;;20.78;79.09
52591;BME280;38483;42.620;25.394;2022-07-29T00:54:39;97195.47;;;20.54;79.23
52591;BME280;38483;42.620;25.394;2022-07-29T00:57:11;97186.69;;;20.65;78.92
52591;BME280;38483;42.620;25.394;2022-07-29T00:59:38;97190.13;;;20.86;78.15
52591;BME280;38483;42.620;25.394;2022-07-29T01:02:05;97195.34;;;20.76;77.82
52591;BME280;38483;42.620;25.394;2022-07-29T01:04:32;97194.06;;;20.71;78.09
52591;BME280;38483;42.620;25.394;2022-07-29T01:07:03;97188.22;;;20.67;78.01
52591;BME280;38483;42.620;25.394;2022-07-29T01:09:32;97197.09;;;21.08;76.78
52591;BME280;38483;42.620;25.394;2022-07-29T01:12:23;97195.50;;;21.26;75.90
52591;BME280;38483;42.620;25.394;2022-07-29T01:14:52;97193.91;;;21.44;74.26
52591;BME280;38483;42.620;25.394;2022-07-29T01:30:45;97193.53;;;21.58;72.67
52591;BME280;38483;42.620;25.394;2022-07-29T01:33:15;97201.69;;;21.45;73.35
52591;BME280;38483;42.620;25.394;2022-07-29T01:36:10;97198.16;;;21.26;74.73
52591;BME280;38483;42.620;25.394;2022-07-29T01:38:41;97191.13;;;21.36;73.94
52591;BME280;38483;42.620;25.394;2022-07-29T01:41:16;97198.34;;;21.43;73.97
52591;BME280;38483;42.620;25.394;2022-07-29T01:44:01;97193.44;;;21.29;74.63
52591;BME280;38483;42.620;25.394;2022-07-29T01:46:33;97199.63;;;20.98;76.34
52591;BME280;38483;42.620;25.394;2022-07-29T01:49:08;97187.19;;;20.79;77.01
52591;BME280;38483;42.620;25.394;2022-07-29T01:54:29;97181.34;;;20.55;78.23
52591;BME280;38483;42.620;25.394;2022-07-29T01:56:59;97160.16;;;20.36;79.09
52591;BME280;38483;42.620;25.394;2022-07-29T01:59:29;97181.69;;;20.30;79.45
52591;BME280;38483;42.620;25.394;2022-07-29T02:01:58;97186.06;;;20.20;79.58
52591;BME280;38483;42.620;25.394;2022-07-29T02:04:27;97187.50;;;20.13;79.88
52591;BME280;38483;42.620;25.394;2022-07-29T02:07:00;97183.13;;;19.91;80.77
52591;BME280;38483;42.620;25.394;2022-07-29T02:09:30;97178.44;;;19.95;80.41
52591;BME280;38483;42.620;25.394;2022-07-29T02:11:59;97166.56;;;20.11;79.47
52591;BME280;38483;42.620;25.394;2022-07-29T02:14:31;97168.63;;;20.08;78.75
52591;BME280;38483;42.620;25.394;2022-07-29T02:17:00;97169.81;;;20.04;78.85
52591;BME280;38483;42.620;25.394;2022-07-29T02:19:29;97164.78;;;20.12;79.08
52591;BME280;38483;42.620;25.394;2022-07-29T02:21:59;97160.84;;;20.06;78.49
52591;BME280;38483;42.620;25.394;2022-07-29T02:24:28;97171.50;;;20.05;78.24
52591;BME280;38483;42.620;25.394;2022-07-29T02:26:57;97170.75;;;20.14;78.31
52591;BME280;38483;42.620;25.394;2022-07-29T02:29:26;97175.34;;;20.01;78.70
52591;BME280;38483;42.620;25.394;2022-07-29T02:31:57;97169.59;;;20.07;78.31
52591;BME280;38483;42.620;25.394;2022-07-29T02:34:25;97160.66;;;19.98;78.25
52591;BME280;38483;42.620;25.394;2022-07-29T02:36:54;97160.38;;;20.01;78.58
52591;BME280;38483;42.620;25.394;2022-07-29T02:39:24;97170.28;;;20.20;77.56
52591;BME280;38483;42.620;25.394;2022-07-29T02:42:07;97177.56;;;20.48;76.82
52591;BME280;38483;42.620;25.394;2022-07-29T02:44:35;97171.16;;;20.62;76.21
52591;BME280;38483;42.620;25.394;2022-07-29T02:50:00;97167.63;;;20.72;75.28
52591;BME280;38483;42.620;25.394;2022-07-29T03:00:40;97169.75;;;19.94;77.98
52591;BME280;38483;42.620;25.394;2022-07-29T03:03:13;97170.53;;;19.63;79.36
52591;BME280;38483;42.620;25.394;2022-07-29T03:05:41;97175.44;;;19.57;79.60
52591;BME280;38483;42.620;25.394;2022-07-29T03:08:11;97162.91;;;19.49;80.10
52591;BME280;38483;42.620;25.394;2022-07-29T03:10:44;97182.97;;;19.61;79.96
52591;BME280;38483;42.620;25.394;2022-07-29T03:13:12;97170.41;;;19.76;79.23
52591;BME280;38483;42.620;25.394;2022-07-29T03:15:42;97170.88;;;19.70;79.28
52591;BME280;38483;42.620;25.394;2022-07-29T03:18:11;97171.13;;;19.67;79.38
52591;BME280;38483;42.620;25.394;2022-07-29T03:20:38;97180.22;;;19.63;79.88
52591;BME280;38483;42.620;25.394;2022-07-29T03:23:06;97186.78;;;19.57;80.16
52591;BME280;38483;42.620;25.394;2022-07-29T03:25:34;97177.22;;;19.78;79.41
52591;BME280;38483;42.620;25.394;2022-07-29T03:28:01;97174.59;;;20.10;77.69
52591;BME280;38483;42.620;25.394;2022-07-29T03:30:29;97192.19;;;20.41;76.62
52591;BME280;38483;42.620;25.394;2022-07-29T03:32:57;97192.84;;;20.54;75.46
52591;BME280;38483;42.620;25.394;2022-07-29T03:35:24;97199.38;;;20.60;74.82
52591;BME280;38483;42.620;25.394;2022-07-29T03:37:51;97195.00;;;20.49;75.22
52591;BME280;38483;42.620;25.394;2022-07-29T03:40:33;97203.28;;;20.45;74.89
52591;BME280;38483;42.620;25.394;2022-07-29T03:43:02;97199.56;;;20.47;74.54
52591;BME280;38483;42.620;25.394;2022-07-29T03:45:30;97196.06;;;20.78;73.67
52591;BME280;38483;42.620;25.394;2022-07-29T03:48:08;97202.66;;;20.93;72.71
52591;BME280;38483;42.620;25.394;2022-07-29T03:50:36;97203.50;;;20.73;73.05
52591;BME280;38483;42.620;25.394;2022-07-29T03:53:03;97206.91;;;20.64;73.78
52591;BME280;38483;42.620;25.394;2022-07-29T03:55:35;97204.31;;;20.53;74.16
52591;BME280;38483;42.620;25.394;2022-07-29T03:58:03;97210.44;;;20.54;74.34
52591;BME280;38483;42.620;25.394;2022-07-29T04:00:31;97216.53;;;20.54;74.34
52591;BME280;38483;42.620;25.394;2022-07-29T04:02:58;97211.47;;;20.62;74.23
52591;BME280;38483;42.620;25.394;2022-07-29T04:05:25;97207.84;;;20.84;73.13
52591;BME280;38483;42.620;25.394;2022-07-29T04:07:52;97205.19;;;21.16;71.91
52591;BME280;38483;42.620;25.394;2022-07-29T04:10:19;97213.56;;;21.30;71.41
52591;BME280;38483;42.620;25.394;2022-07-29T04:12:58;97203.53;;;21.54;70.44
52591;BME280;38483;42.620;25.394;2022-07-29T04:15:25;97189.41;;;21.65;69.14
52591;BME280;38483;42.620;25.394;2022-07-29T04:17:58;97220.19;;;21.55;70.05
52591;BME280;38483;42.620;25.394;2022-07-29T04:20:25;97218.63;;;21.43;70.94
52591;BME280;38483;42.620;25.394;2022-07-29T04:22:52;97201.38;;;21.69;70.13
52591;BME280;38483;42.620;25.394;2022-07-29T04:25:19;97224.84;;;22.21;68.09
52591;BME280;38483;42.620;25.394;2022-07-29T04:27:46;97221.53;;;22.77;66.83
52591;BME280;38483;42.620;25.394;2022-07-29T04:30:30;97167.59;;;22.79;64.92
52591;BME280;38483;42.620;25.394;2022-07-29T04:32:57;97210.56;;;23.27;63.89
52591;BME280;38483;42.620;25.394;2022-07-29T04:35:24;97219.41;;;23.55;62.68
52591;BME280;38483;42.620;25.394;2022-07-29T04:37:51;97223.81;;;23.64;62.77
52591;BME280;38483;42.620;25.394;2022-07-29T04:40:19;97213.44;;;23.53;61.96
52591;BME280;38483;42.620;25.394;2022-07-29T04:42:46;97224.19;;;23.42;63.32
52591;BME280;38483;42.620;25.394;2022-07-29T04:45:15;97216.47;;;23.58;63.11
52591;BME280;38483;42.620;25.394;2022-07-29T04:47:48;97212.81;;;23.32;63.28
52591;BME280;38483;42.620;25.394;2022-07-29T04:50:15;97227.16;;;23.66;63.12
52591;BME280;38483;42.620;25.394;2022-07-29T04:52:43;97217.81;;;23.72;63.17
52591;BME280;38483;42.620;25.394;2022-07-29T04:55:10;97218.63;;;23.99;61.90
52591;BME280;38483;42.620;25.394;2022-07-29T04:57:38;97229.03;;;23.83;62.29
52591;BME280;38483;42.620;25.394;2022-07-29T05:00:05;97221.00;;;23.93;62.19
52591;BME280;38483;42.620;25.394;2022-07-29T05:02:33;97228.34;;;23.99;61.63
52591;BME280;38483;42.620;25.394;2022-07-29T05:05:00;97229.53;;;23.60;62.94
52591;BME280;38483;42.620;25.394;2022-07-29T05:07:28;97240.47;;;23.37;64.06
52591;BME280;38483;42.620;25.394;2022-07-29T05:09:55;97237.19;;;23.63;63.64
52591;BME280;38483;42.620;25.394;2022-07-29T05:12:24;97244.97;;;23.64;63.23
52591;BME280;38483;42.620;25.394;2022-07-29T05:14:51;97246.81;;;23.54;63.37
52591;BME280;38483;42.620;25.394;2022-07-29T05:17:18;97241.31;;;23.38;64.13
52591;BME280;38483;42.620;25.394;2022-07-29T05:19:45;97238.72;;;23.65;63.21
52591;BME280;38483;42.620;25.394;2022-07-29T05:22:13;97246.63;;;24.29;61.81
52591;BME280;38483;42.620;25.394;2022-07-29T05:24:39;97234.78;;;24.06;61.68
52591;BME280;38483;42.620;25.394;2022-07-29T05:27:07;97238.41;;;24.05;62.17
52591;BME280;38483;42.620;25.394;2022-07-29T05:29:34;97256.97;;;24.22;62.37
52591;BME280;38483;42.620;25.394;2022-07-29T05:32:11;97255.16;;;24.41;61.17
52591;BME280;38483;42.620;25.394;2022-07-29T05:34:39;97254.59;;;24.82;60.74
52591;BME280;38483;42.620;25.394;2022-07-29T05:37:19;97255.31;;;24.92;59.92
52591;BME280;38483;42.620;25.394;2022-07-29T05:39:46;97251.09;;;24.99;60.19
52591;BME280;38483;42.620;25.394;2022-07-29T05:42:22;97252.44;;;25.03;60.23
52591;BME280;38483;42.620;25.394;2022-07-29T05:44:49;97255.59;;;24.81;60.49
52591;BME280;38483;42.620;25.394;2022-07-29T05:47:16;97248.50;;;24.72;61.21
52591;BME280;38483;42.620;25.394;2022-07-29T05:49:43;97244.97;;;25.24;59.93
52591;BME280;38483;42.620;25.394;2022-07-29T05:52:10;97252.50;;;25.11;60.13
52591;BME280;38483;42.620;25.394;2022-07-29T05:54:37;97247.16;;;25.03;59.52
52591;BME280;38483;42.620;25.394;2022-07-29T05:57:04;97247.03;;;24.87;60.47
52591;BME280;38483;42.620;25.394;2022-07-29T05:59:36;97249.63;;;24.69;62.08
52591;BME280;38483;42.620;25.394;2022-07-29T06:02:03;97245.38;;;25.12;60.05
52591;BME280;38483;42.620;25.394;2022-07-29T06:04:32;97248.81;;;25.30;58.55
52591;BME280;38483;42.620;25.394;2022-07-29T06:07:00;97253.75;;;25.42;59.68
52591;BME280;38483;42.620;25.394;2022-07-29T06:09:28;97252.00;;;25.33;59.78
52591;BME280;38483;42.620;25.394;2022-07-29T06:11:56;97244.16;;;25.06;60.93
52591;BME280;38483;42.620;25.394;2022-07-29T06:14:25;97256.50;;;25.15;60.10
52591;BME280;38483;42.620;25.394;2022-07-29T06:16:53;97253.84;;;25.58;58.84
52591;BME280;38483;42.620;25.394;2022-07-29T06:19:20;97257.91;;;25.78;58.25
52591;BME280;38483;42.620;25.394;2022-07-29T06:21:47;97252.47;;;26.22;55.76
52591;BME280;38483;42.620;25.394;2022-07-29T06:24:15;97256.63;;;26.24;55.36
52591;BME280;38483;42.620;25.394;2022-07-29T06:26:43;97244.38;;;26.31;55.53
52591;BME280;38483;42.620;25.394;2022-07-29T06:29:11;97257.69;;;26.47;55.50
52591;BME280;38483;42.620;25.394;2022-07-29T06:31:38;97247.25;;;26.70;54.51
52591;BME280;38483;42.620;25.394;2022-07-29T06:34:06;97238.47;;;26.78;54.09
52591;BME280;38483;42.620;25.394;2022-07-29T06:36:35;97257.56;;;26.73;53.66
52591;BME280;38483;42.620;25.394;2022-07-29T06:39:06;97256.88;;;26.63;53.77
52591;BME280;38483;42.620;25.394;2022-07-29T06:41:34;97264.00;;;26.54;53.84
52591;BME280;38483;42.620;25.394;2022-07-29T06:44:08;97237.56;;;26.37;53.24
52591;BME280;38483;42.620;25.394;2022-07-29T06:46:36;97251.94;;;26.76;52.38
52591;BME280;38483;42.620;25.394;2022-07-29T06:49:03;97255.25;;;27.18;52.08
52591;BME280;38483;42.620;25.394;2022-07-29T06:51:31;97253.88;;;27.63;50.95
52591;BME280;38483;42.620;25.394;2022-07-29T06:53:59;97243.06;;;27.64;49.22
52591;BME280;38483;42.620;25.394;2022-07-29T06:56:30;97250.28;;;27.86;48.21
52591;BME280;38483;42.620;25.394;2022-07-29T06:59:07;97242.25;;;28.10;47.11
52591;BME280;38483;42.620;25.394;2022-07-29T07:01:39;97253.16;;;28.24;46.91
52591;BME280;38483;42.620;25.394;2022-07-29T07:04:08;97251.22;;;28.40;47.01
52591;BME280;38483;42.620;25.394;2022-07-29T07:06:36;97247.31;;;28.28;45.41
52591;BME280;38483;42.620;25.394;2022-07-29T07:09:03;97247.91;;;28.38;43.98
52591;BME280;38483;42.620;25.394;2022-07-29T07:11:30;97252.13;;;28.33;44.62
52591;BME280;38483;42.620;25.394;2022-07-29T07:13:58;97253.94;;;28.32;45.47
52591;BME280;38483;42.620;25.394;2022-07-29T07:16:43;97244.16;;;28.55;43.31
52591;BME280;38483;42.620;25.394;2022-07-29T07:19:10;97244.50;;;28.60;42.74
52591;BME280;38483;42.620;25.394;2022-07-29T07:21:40;97243.41;;;28.69;41.87
52591;BME280;38483;42.620;25.394;2022-07-29T07:24:07;97249.28;;;28.87;41.90
52591;BME280;38483;42.620;25.394;2022-07-29T07:26:34;97251.97;;;29.25;41.40
52591;BME280;38483;42.620;25.394;2022-07-29T07:29:01;97205.06;;;28.93;39.24
52591;BME280;38483;42.620;25.394;2022-07-29T07:31:28;97206.53;;;28.95;40.03
52591;BME280;38483;42.620;25.394;2022-07-29T07:33:56;97238.13;;;28.84;38.81
52591;BME280;38483;42.620;25.394;2022-07-29T07:36:23;97247.38;;;29.19;38.13
52591;BME280;38483;42.620;25.394;2022-07-29T07:38:50;97243.56;;;29.50;38.77
52591;BME280;38483;42.620;25.394;2022-07-29T07:41:17;97235.47;;;29.44;37.11
52591;BME280;38483;42.620;25.394;2022-07-29T07:43:45;97233.25;;;29.62;37.86
52591;BME280;38483;42.620;25.394;2022-07-29T07:46:12;97233.47;;;29.75;37.15
52591;BME280;38483;42.620;25.394;2022-07-29T07:48:39;97240.41;;;29.84;35.96
52591;BME280;38483;42.620;25.394;2022-07-29T07:51:06;97241.59;;;29.96;36.35
52591;BME280;38483;42.620;25.394;2022-07-29T07:53:34;97243.13;;;28.87;37.65
52591;BME280;38483;42.620;25.394;2022-07-29T07:56:01;97237.66;;;29.26;37.37
52591;BME280;38483;42.620;25.394;2022-07-29T07:58:38;97238.69;;;29.54;36.88
52591;BME280;38483;42.620;25.394;2022-07-29T08:01:05;97222.28;;;29.28;37.38
52591;BME280;38483;42.620;25.394;2022-07-29T08:03:33;97227.81;;;29.04;38.40
52591;BME280;38483;42.620;25.394;2022-07-29T08:06:00;97229.19;;;29.22;37.08
52591;BME280;38483;42.620;25.394;2022-07-29T08:08:27;97223.16;;;28.52;38.27
52591;BME280;38483;42.620;25.394;2022-07-29T08:10:54;97222.38;;;28.97;38.26
52591;BME280;38483;42.620;25.394;2022-07-29T08:13:31;97204.44;;;29.28;37.42
52591;BME280;38483;42.620;25.394;2022-07-29T08:15:59;97214.84;;;29.67;37.36
52591;BME280;38483;42.620;25.394;2022-07-29T08:18:39;97218.53;;;29.00;38.18
52591;BME280;38483;42.620;25.394;2022-07-29T08:21:06;97216.06;;;29.13;37.52
52591;BME280;38483;42.620;25.394;2022-07-29T08:23:34;97220.53;;;29.35;38.64
52591;BME280;38483;42.620;25.394;2022-07-29T08:26:19;97209.53;;;29.82;37.71
52591;BME280;38483;42.620;25.394;2022-07-29T08:28:48;97222.66;;;30.12;36.80
52591;BME280;38483;42.620;25.394;2022-07-29T08:31:17;97225.09;;;29.78;37.20
52591;BME280;38483;42.620;25.394;2022-07-29T08:33:51;97218.44;;;30.03;36.96
52591;BME280;38483;42.620;25.394;2022-07-29T08:36:18;97229.50;;;30.00;36.40
52591;BME280;38483;42.620;25.394;2022-07-29T08:38:47;97214.50;;;29.85;37.19
52591;BME280;38483;42.620;25.394;2022-07-29T08:41:17;97217.50;;;29.38;38.10
52591;BME280;38483;42.620;25.394;2022-07-29T08:43:47;97223.13;;;29.72;37.88
52591;BME280;38483;42.620;25.394;2022-07-29T08:46:15;97208.59;;;29.74;36.59
52591;BME280;38483;42.620;25.394;2022-07-29T08:48:44;97207.13;;;29.87;37.27
52591;BME280;38483;42.620;25.394;2022-07-29T08:51:16;97212.38;;;29.80;37.99
52591;BME280;38483;42.620;25.394;2022-07-29T08:53:46;97204.03;;;30.19;37.22
52591;BME280;38483;42.620;25.394;2022-07-29T08:56:17;97194.75;;;30.29;36.38
52591;BME280;38483;42.620;25.394;2022-07-29T08:58:46;97188.63;;;30.57;36.33
52591;BME280;38483;42.620;25.394;2022-07-29T09:01:23;97196.66;;;30.78;36.32
52591;BME280;38483;42.620;25.394;2022-07-29T09:04:04;97206.06;;;30.52;35.93
52591;BME280;38483;42.620;25.394;2022-07-29T09:06:34;97190.06;;;30.02;36.00
52591;BME280;38483;42.620;25.394;2022-07-29T09:09:03;97185.41;;;29.75;37.21
52591;BME280;38483;42.620;25.394;2022-07-29T09:11:32;97197.38;;;29.94;36.80
52591;BME280;38483;42.620;25.394;2022-07-29T09:13:59;97194.03;;;29.48;36.60
52591;BME280;38483;42.620;25.394;2022-07-29T09:16:43;97183.06;;;29.57;37.37
52591;BME280;38483;42.620;25.394;2022-07-29T09:19:28;97180.59;;;29.70;37.23
52591;BME280;38483;42.620;25.394;2022-07-29T09:21:56;97165.28;;;30.08;35.70
52591;BME280;38483;42.620;25.394;2022-07-29T09:27:23;97167.28;;;30.84;35.40
52591;BME280;38483;42.620;25.394;2022-07-29T09:30:13;97179.06;;;30.69;33.98
52591;BME280;38483;42.620;25.394;2022-07-29T09:32:59;97157.00;;;30.60;34.52
52591;BME280;38483;42.620;25.394;2022-07-29T09:35:29;97170.09;;;30.76;34.57
52591;BME280;38483;42.620;25.394;2022-07-29T09:37:56;97170.41;;;30.10;34.36
52591;BME280;38483;42.620;25.394;2022-07-29T09:40:26;97160.19;;;30.13;34.60
52591;BME280;38483;42.620;25.394;2022-07-29T09:42:54;97172.47;;;30.08;34.68
52591;BME280;38483;42.620;25.394;2022-07-29T09:47:54;97164.94;;;30.32;33.43
52591;BME280;38483;42.620;25.394;2022-07-29T09:50:34;97174.63;;;30.76;33.95
52591;BME280;38483;42.620;25.394;2022-07-29T09:53:01;97180.81;;;30.97;33.57
52591;BME280;38483;42.620;25.394;2022-07-29T09:55:28;97176.28;;;30.77;34.16
52591;BME280;38483;42.620;25.394;2022-07-29T09:58:15;97174.38;;;30.92;33.84
52591;BME280;38483;42.620;25.394;2022-07-29T10:00:43;97167.50;;;30.83;33.87
52591;BME280;38483;42.620;25.394;2022-07-29T10:03:10;97161.09;;;30.84;34.02
52591;BME280;38483;42.620;25.394;2022-07-29T10:05:39;97168.00;;;30.72;35.43
52591;BME280;38483;42.620;25.394;2022-07-29T10:08:08;97173.28;;;30.65;34.41
52591;BME280;38483;42.620;25.394;2022-07-29T10:10:46;97151.38;;;30.76;34.71
52591;BME280;38483;42.620;25.394;2022-07-29T10:13:14;97161.50;;;30.81;34.23
52591;BME280;38483;42.620;25.394;2022-07-29T10:15:43;97151.75;;;30.94;34.04
52591;BME280;38483;42.620;25.394;2022-07-29T10:18:13;97145.19;;;30.76;34.78
52591;BME280;38483;42.620;25.394;2022-07-29T10:20:41;97147.63;;;30.71;34.97
52591;BME280;38483;42.620;25.394;2022-07-29T10:23:09;97139.56;;;30.64;33.83
52591;BME280;38483;42.620;25.394;2022-07-29T10:25:36;97134.53;;;31.03;33.01
52591;BME280;38483;42.620;25.394;2022-07-29T10:28:05;97134.63;;;31.16;33.08
52591;BME280;38483;42.620;25.394;2022-07-29T10:30:32;97129.47;;;31.49;33.51
52591;BME280;38483;42.620;25.394;2022-07-29T10:41:43;97119.25;;;32.13;30.98
52591;BME280;38483;42.620;25.394;2022-07-29T10:44:15;97117.22;;;31.61;31.10
52591;BME280;38483;42.620;25.394;2022-07-29T10:46:49;97109.31;;;31.47;31.83
52591;BME280;38483;42.620;25.394;2022-07-29T10:49:17;97129.13;;;31.59;33.35
52591;BME280;38483;42.620;25.394;2022-07-29T10:57:19;97111.66;;;32.17;32.63
52591;BME280;38483;42.620;25.394;2022-07-29T11:05:14;97107.88;;;31.98;30.92
52591;BME280;38483;42.620;25.394;2022-07-29T11:10:48;97110.00;;;32.29;30.83
52591;BME280;38483;42.620;25.394;2022-07-29T11:13:45;97103.41;;;32.38;29.93
52591;BME280;38483;42.620;25.394;2022-07-29T11:16:15;97108.78;;;32.38;30.94
52591;BME280;38483;42.620;25.394;2022-07-29T11:21:45;97099.13;;;31.76;32.94
52591;BME280;38483;42.620;25.394;2022-07-29T11:24:28;97089.53;;;31.95;32.19
52591;BME280;38483;42.620;25.394;2022-07-29T11:32:19;97094.81;;;32.62;32.04
52591;BME280;38483;42.620;25.394;2022-07-29T11:35:10;97095.00;;;32.80;31.42
52591;BME280;38483;42.620;25.394;2022-07-29T11:41:26;97087.78;;;32.67;31.03
52591;BME280;38483;42.620;25.394;2022-07-29T11:43:56;97072.09;;;32.77;30.55
52591;BME280;38483;42.620;25.394;2022-07-29T11:46:47;97072.09;;;32.97;30.71
52591;BME280;38483;42.620;25.394;2022-07-29T11:49:24;97069.38;;;33.17;30.59
52591;BME280;38483;42.620;25.394;2022-07-29T11:52:00;97072.66;;;33.32;29.91
52591;BME280;38483;42.620;25.394;2022-07-29T11:54:32;97067.44;;;33.43;30.68
52591;BME280;38483;42.620;25.394;2022-07-29T11:57:20;97064.53;;;33.45;30.51
52591;BME280;38483;42.620;25.394;2022-07-29T11:59:47;97060.06;;;33.19;31.22
52591;BME280;38483;42.620;25.394;2022-07-29T12:02:16;97056.78;;;33.17;31.41
52591;BME280;38483;42.620;25.394;2022-07-29T12:05:41;97055.59;;;32.87;32.17
52591;BME280;38483;42.620;25.394;2022-07-29T12:09:07;97057.84;;;32.90;31.78
52591;BME280;38483;42.620;25.394;2022-07-29T12:12:28;97048.53;;;32.07;32.69
52591;BME280;38483;42.620;25.394;2022-07-29T12:15:54;97042.19;;;32.61;32.56
52591;BME280;38483;42.620;25.394;2022-07-29T12:19:21;97041.97;;;32.82;31.68
52591;BME280;38483;42.620;25.394;2022-07-29T12:22:48;97039.31;;;32.56;31.22
52591;BME280;38483;42.620;25.394;2022-07-29T12:26:09;97060.97;;;32.48;31.90
52591;BME280;38483;42.620;25.394;2022-07-29T12:29:29;97062.34;;;31.98;33.19
52591;BME280;38483;42.620;25.394;2022-07-29T12:32:51;97040.50;;;32.07;32.58
52591;BME280;38483;42.620;25.394;2022-07-29T12:36:15;97043.59;;;32.04;33.04
52591;BME280;38483;42.620;25.394;2022-07-29T12:39:36;97044.00;;;32.34;32.51
52591;BME280;38483;42.620;25.394;2022-07-29T12:43:06;97045.66;;;32.16;32.33
52591;BME280;38483;42.620;25.394;2022-07-29T12:46:32;97030.19;;;32.18;32.68
52591;BME280;38483;42.620;25.394;2022-07-29T12:50:14;97025.06;;;32.62;32.13
52591;BME280;38483;42.620;25.394;2022-07-29T12:53:33;97021.31;;;32.89;31.50
52591;BME280;38483;42.620;25.394;2022-07-29T12:56:58;97023.75;;;33.10;31.12
52591;BME280;38483;42.620;25.394;2022-07-29T13:00:23;97016.41;;;33.37;30.65
52591;BME280;38483;42.620;25.394;2022-07-29T13:06:40;97020.28;;;33.03;30.70
52591;BME280;38483;42.620;25.394;2022-07-29T13:10:14;96984.16;;;32.86;31.18
52591;BME280;38483;42.620;25.394;2022-07-29T13:13:33;97010.94;;;33.12;30.39
52591;BME280;38483;42.620;25.394;2022-07-29T13:17:26;96994.88;;;32.99;30.21
52591;BME280;38483;42.620;25.394;2022-07-29T13:20:27;96997.78;;;32.78;30.15
52591;BME280;38483;42.620;25.394;2022-07-29T13:23:47;96987.91;;;32.72;30.79
52591;BME280;38483;42.620;25.394;2022-07-29T13:27:07;96989.91;;;33.09;30.56
52591;BME280;38483;42.620;25.394;2022-07-29T13:30:29;96984.06;;;33.19;30.15
52591;BME280;38483;42.620;25.394;2022-07-29T13:33:50;96990.22;;;33.32;30.86
52591;BME280;38483;42.620;25.394;2022-07-29T13:37:11;96991.78;;;33.02;29.74
52591;BME280;38483;42.620;25.394;2022-07-29T13:40:34;96987.03;;;32.91;30.05
52591;BME280;38483;42.620;25.394;2022-07-29T13:43:54;96991.97;;;32.94;29.84
52591;BME280;38483;42.620;25.394;2022-07-29T13:47:16;96983.09;;;33.00;30.04
52591;BME280;38483;42.620;25.394;2022-07-29T13:50:37;96978.38;;;32.89;30.61
52591;BME280;38483;42.620;25.394;2022-07-29T13:53:57;96984.97;;;32.93;31.23
52591;BME280;38483;42.620;25.394;2022-07-29T13:57:18;96974.25;;;32.80;30.38
52591;BME280;38483;42.620;25.394;2022-07-29T14:00:39;96971.31;;;33.08;30.02
52591;BME280;38483;42.620;25.394;2022-07-29T14:03:59;96979.38;;;32.95;30.31
52591;BME280;38483;42.620;25.394;2022-07-29T14:07:20;96977.31;;;33.03;29.93
52591;BME280;38483;42.620;25.394;2022-07-29T14:10:41;96967.94;;;33.25;30.24
52591;BME280;38483;42.620;25.394;2022-07-29T14:14:01;96965.19;;;33.38;29.80
52591;BME280;38483;42.620;25.394;2022-07-29T14:17:22;96967.44;;;33.41;31.08
52591;BME280;38483;42.620;25.394;2022-07-29T14:20:42;96961.31;;;33.28;31.13
52591;BME280;38483;42.620;25.394;2022-07-29T14:24:03;96962.28;;;33.40;30.14
52591;BME280;38483;42.620;25.394;2022-07-29T14:27:24;96960.50;;;33.27;31.20
52591;BME280;38483;42.620;25.394;2022-07-29T14:30:44;96961.44;;;32.88;32.02
52591;BME280;38483;42.620;25.394;2022-07-29T14:33:45;96966.78;;;32.95;31.14
52591;BME280;38483;42.620;25.394;2022-07-29T14:36:15;96956.63;;;33.10;31.28
52591;BME280;38483;42.620;25.394;2022-07-29T14:38:42;96956.38;;;33.18;31.88
52591;BME280;38483;42.620;25.394;2022-07-29T14:41:09;96962.50;;;33.38;30.88
52591;BME280;38483;42.620;25.394;2022-07-29T14:43:36;96960.00;;;33.43;30.93
52591;BME280;38483;42.620;25.394;2022-07-29T14:46:03;96949.78;;;33.21;31.60
52591;BME280;38483;42.620;25.394;2022-07-29T14:48:34;96942.22;;;33.05;31.64
52591;BME280;38483;42.620;25.394;2022-07-29T14:51:01;96955.88;;;32.83;31.38
52591;BME280;38483;42.620;25.394;2022-07-29T14:53:31;96950.72;;;32.88;31.44
52591;BME280;38483;42.620;25.394;2022-07-29T14:55:58;96946.19;;;32.76;31.97